createdAt,value
2022-09-26T00:00:45.009Z,99923.91
2022-09-26T00:01:47.371Z,99925.63
2022-09-26T00:02:49.781Z,99923.41
2022-09-26T00:03:58.515Z,99928.44
2022-09-26T00:05:00.992Z,99939.41
2022-09-26T00:06:05.998Z,99926.25
2022-09-26T00:07:08.177Z,99926.19
2022-09-26T00:08:10.397Z,99930.78
2022-09-26T00:09:13.936Z,99930.69
2022-09-26T00:10:16.274Z,99929.91
2022-09-26T00:11:24.511Z,99922.97
2022-09-26T00:12:26.771Z,99926.41
2022-09-26T00:13:31.073Z,99933.81
2022-09-26T00:14:33.666Z,99924.78
2022-09-26T00:15:35.915Z,99926.41
2022-09-26T00:16:38.832Z,99930.78
2022-09-26T00:17:41.152Z,99928.69
2022-09-26T00:18:43.375Z,99925.56
2022-09-26T00:19:45.685Z,99927.13
2022-09-26T00:20:48.420Z,99930.84
2022-09-26T00:21:50.642Z,99922.72
2022-09-26T00:22:52.976Z,99924.44
2022-09-26T00:23:56.361Z,99924.84
2022-09-26T00:25:03.414Z,99925.13
2022-09-26T00:26:08.905Z,99924.41
2022-09-26T00:27:11.230Z,99923.22
2022-09-26T00:28:18.294Z,99933.25
2022-09-26T00:29:20.504Z,99925.84
2022-09-26T00:30:25.724Z,99930.50
2022-09-26T00:31:30.706Z,99934.31
2022-09-26T00:32:33.236Z,99931.28
2022-09-26T00:33:35.687Z,99931.72
2022-09-26T00:34:40.817Z,99940.47
2022-09-26T00:35:55.568Z,99934.47
2022-09-26T00:36:58.280Z,99936.38
2022-09-26T00:38:00.764Z,99934.22
2022-09-26T00:39:03.229Z,99928.22
2022-09-26T00:40:06.056Z,99932.13
2022-09-26T00:41:09.532Z,99936.63
2022-09-26T00:42:15.417Z,99927.09
2022-09-26T00:43:32.964Z,99934.03
2022-09-26T00:44:42.455Z,99933.22
2022-09-26T00:45:44.940Z,99923.63
2022-09-26T00:46:48.934Z,99929.84
2022-09-26T00:47:59.675Z,99935.22
2022-09-26T00:49:20.876Z,99929.06
2022-09-26T00:50:31.210Z,99925.47
2022-09-26T00:51:37.005Z,99922.63
2022-09-26T00:52:49.851Z,99924.09
2022-09-26T00:53:53.922Z,99911.78
2022-09-26T00:55:01.372Z,99919.34
2022-09-26T00:56:10.997Z,99917.94
2022-09-26T00:57:19.481Z,99914.75
2022-09-26T00:58:32.494Z,99920.09
2022-09-26T00:59:44.557Z,99916.66
2022-09-26T01:00:50.772Z,99924.78
2022-09-26T01:01:56.282Z,99925.38
2022-09-26T01:02:58.835Z,99922.00
2022-09-26T01:04:03.911Z,99925.72
2022-09-26T01:05:07.313Z,99927.44
2022-09-26T01:06:09.981Z,99926.94
2022-09-26T01:07:19.275Z,99931.25
2022-09-26T01:08:31.033Z,99924.97
2022-09-26T01:09:36.375Z,99924.53
2022-09-26T01:10:41.667Z,99922.88
2022-09-26T01:11:44.996Z,99924.78
2022-09-26T01:12:47.619Z,99921.38
2022-09-26T01:13:52.501Z,99922.34
2022-09-26T01:14:58.414Z,99919.03
2022-09-26T01:16:01.014Z,99912.47
2022-09-26T01:17:04.641Z,99917.06
2022-09-26T01:18:07.825Z,99909.38
2022-09-26T01:19:38.483Z,99906.63
2022-09-26T01:20:43.329Z,99904.44
2022-09-26T01:22:07.126Z,99898.38
2022-09-26T01:23:43.056Z,99902.09
2022-09-26T01:24:52.977Z,99895.19
2022-09-26T01:26:01.069Z,99890.69
2022-09-26T01:27:44.474Z,99902.09
2022-09-26T01:29:25.115Z,99892.06
2022-09-26T01:30:44.315Z,99896.47
2022-09-26T01:32:20.157Z,99895.81
2022-09-26T01:33:53.118Z,99888.34
2022-09-26T01:35:07.514Z,99888.00
2022-09-26T01:36:33.665Z,99879.00
2022-09-26T01:37:59.470Z,99882.03
2022-09-26T01:39:01.835Z,99880.78
2022-09-26T01:40:16.079Z,99875.63
2022-09-26T01:41:24.711Z,99879.16
2022-09-26T01:43:02.556Z,99865.81
2022-09-26T01:44:33.353Z,99869.13
2022-09-26T01:46:16.751Z,99866.19
2022-09-26T01:47:22.460Z,99864.13
2022-09-26T01:48:36.234Z,99863.44
2022-09-26T01:49:41.506Z,99865.31
2022-09-26T01:50:55.904Z,99861.72
2022-09-26T01:52:31.432Z,99868.09
2022-09-26T01:53:39.682Z,99866.28
2022-09-26T01:54:49.999Z,99872.09
2022-09-26T01:56:09.056Z,99871.03
2022-09-26T01:57:36.265Z,99866.72
2022-09-26T01:58:47.305Z,99860.31
2022-09-26T02:00:01.469Z,99864.13
2022-09-26T02:01:09.968Z,99860.38
2022-09-26T02:02:25.547Z,99868.34
2022-09-26T02:03:32.517Z,99864.56
2022-09-26T02:04:41.259Z,99868.97
2022-09-26T02:05:50.501Z,99867.56
2022-09-26T02:06:56.640Z,99862.56
2022-09-26T02:08:15.980Z,99867.91
2022-09-26T02:09:37.220Z,99868.78
2022-09-26T02:10:51.357Z,99875.09
2022-09-26T02:11:59.606Z,99871.03
2022-09-26T02:13:11.388Z,99867.50
2022-09-26T02:14:19.363Z,99872.78
2022-09-26T02:15:25.776Z,99863.97
2022-09-26T02:16:47.489Z,99874.91
2022-09-26T02:17:55.401Z,99880.63
2022-09-26T02:19:04.273Z,99871.47
2022-09-26T02:20:22.780Z,99873.34
2022-09-26T02:21:25.284Z,99877.34
2022-09-26T02:22:32.152Z,99869.47
2022-09-26T02:23:35.295Z,99860.28
2022-09-26T02:24:37.558Z,99863.16
2022-09-26T02:25:40.146Z,99864.09
2022-09-26T02:26:42.872Z,99871.03
2022-09-26T02:27:45.426Z,99860.28
2022-09-26T02:28:47.781Z,99860.13
2022-09-26T02:29:53.328Z,99861.94
2022-09-26T02:30:59.431Z,99865.16
2022-09-26T02:32:13.831Z,99865.53
2022-09-26T02:33:19.316Z,99863.19
2022-09-26T02:34:25.010Z,99860.81
2022-09-26T02:35:46.294Z,99858.84
2022-09-26T02:36:49.108Z,99862.22
2022-09-26T02:37:54.199Z,99857.00
2022-09-26T02:38:57.494Z,99853.66
2022-09-26T02:40:40.710Z,99857.97
2022-09-26T02:41:51.041Z,99848.59
2022-09-26T02:43:21.410Z,99858.31
2022-09-26T02:44:48.584Z,99849.97
2022-09-26T02:46:03.511Z,99855.94
2022-09-26T02:47:21.925Z,99850.66
2022-09-26T02:48:33.782Z,99846.66
2022-09-26T02:49:53.743Z,99847.78
2022-09-26T02:51:14.684Z,99852.16
2022-09-26T02:52:50.859Z,99848.38
2022-09-26T02:54:10.795Z,99849.06
2022-09-26T02:55:27.085Z,99850.44
2022-09-26T02:56:55.425Z,99850.00
2022-09-26T02:58:10.419Z,99852.97
2022-09-26T02:59:22.516Z,99844.31
2022-09-26T03:00:32.561Z,99848.72
2022-09-26T03:01:44.094Z,99844.41
2022-09-26T03:03:13.686Z,99851.06
2022-09-26T03:04:28.591Z,99841.19
2022-09-26T03:05:41.473Z,99848.28
2022-09-26T03:06:46.828Z,99851.69
2022-09-26T03:07:49.099Z,99841.19
2022-09-26T03:08:54.032Z,99844.91
2022-09-26T03:10:00.584Z,99838.94
2022-09-26T03:11:05.277Z,99843.50
2022-09-26T03:12:10.072Z,99842.72
2022-09-26T03:13:16.407Z,99835.72
2022-09-26T03:14:22.365Z,99838.41
2022-09-26T03:15:29.395Z,99838.41
2022-09-26T03:16:38.012Z,99828.97
2022-09-26T03:17:47.700Z,99832.63
2022-09-26T03:19:03.518Z,99836.78
2022-09-26T03:20:15.438Z,99830.28
2022-09-26T03:21:21.524Z,99829.25
2022-09-26T03:22:25.401Z,99829.25
2022-09-26T03:23:28.603Z,99820.94
2022-09-26T03:24:37.168Z,99819.03
2022-09-26T03:25:40.784Z,99826.31
2022-09-26T03:26:48.003Z,99822.69
2022-09-26T03:27:51.961Z,99823.28
2022-09-26T03:28:56.226Z,99825.38
2022-09-26T03:30:00.833Z,99826.91
2022-09-26T03:31:03.949Z,99830.38
2022-09-26T03:32:16.165Z,99826.56
2022-09-26T03:33:21.732Z,99822.84
2022-09-26T03:34:24.829Z,99834.13
2022-09-26T03:35:27.410Z,99831.16
2022-09-26T03:36:32.930Z,99824.59
2022-09-26T03:37:40.065Z,99822.69
2022-09-26T03:38:42.776Z,99826.06
2022-09-26T03:39:59.879Z,99822.31
2022-09-26T03:41:23.180Z,99816.53
2022-09-26T03:42:25.280Z,99819.63
2022-09-26T03:43:30.021Z,99819.75
2022-09-26T03:44:32.833Z,99826.88
2022-09-26T03:45:44.535Z,99822.56
2022-09-26T03:46:55.518Z,99817.50
2022-09-26T03:48:01.376Z,99823.94
2022-09-26T03:49:03.884Z,99821.16
2022-09-26T03:50:09.411Z,99823.84
2022-09-26T03:51:13.954Z,99820.19
2022-09-26T03:52:16.663Z,99821.75
2022-09-26T03:53:19.671Z,99821.09
2022-09-26T03:54:24.670Z,99822.88
2022-09-26T03:55:27.682Z,99822.34
2022-09-26T03:56:32.913Z,99828.91
2022-09-26T03:57:35.274Z,99822.97
2022-09-26T03:58:49.866Z,99823.91
2022-09-26T03:59:52.575Z,99829.19
2022-09-26T04:00:55.230Z,99829.19
2022-09-26T04:01:57.606Z,99828.22
2022-09-26T04:03:03.251Z,99828.06
2022-09-26T04:04:15.218Z,99822.34
2022-09-26T04:05:20.670Z,99829.19
2022-09-26T04:06:23.463Z,99823.81
2022-09-26T04:07:29.053Z,99827.38
2022-09-26T04:08:32.902Z,99829.28
2022-09-26T04:09:35.292Z,99827.38
2022-09-26T04:10:40.691Z,99828.41
2022-09-26T04:11:43.482Z,99830.13
2022-09-26T04:12:46.250Z,99826.91
2022-09-26T04:13:54.086Z,99828.81
2022-09-26T04:14:59.751Z,99826.22
2022-09-26T04:16:03.526Z,99828.75
2022-09-26T04:17:05.853Z,99828.81
2022-09-26T04:18:12.707Z,99821.31
2022-09-26T04:19:15.528Z,99823.22
2022-09-26T04:20:17.819Z,99819.41
2022-09-26T04:21:20.529Z,99816.34
2022-09-26T04:22:25.959Z,99812.19
2022-09-26T04:23:29.138Z,99811.53
2022-09-26T04:24:31.545Z,99803.38
2022-09-26T04:25:37.867Z,99809.59
2022-09-26T04:26:42.668Z,99817.75
2022-09-26T04:27:44.831Z,99811.97
2022-09-26T04:28:51.110Z,99807.47
2022-09-26T04:29:57.231Z,99818.31
2022-09-26T04:31:13.797Z,99815.34
2022-09-26T04:32:24.360Z,99802.00
2022-09-26T04:33:49.768Z,99807.75
2022-09-26T04:34:52.263Z,99805.53
2022-09-26T04:35:55.817Z,99808.78
2022-09-26T04:37:02.236Z,99807.03
2022-09-26T04:38:05.911Z,99804.72
2022-09-26T04:39:11.352Z,99803.84
2022-09-26T04:40:13.944Z,99800.88
2022-09-26T04:41:28.297Z,99799.50
2022-09-26T04:42:34.697Z,99799.50
2022-09-26T04:43:37.482Z,99803.75
2022-09-26T04:44:41.123Z,99802.25
2022-09-26T04:45:43.665Z,99797.22
2022-09-26T04:46:48.020Z,99803.53
2022-09-26T04:47:50.910Z,99799.78
2022-09-26T04:49:04.188Z,99804.00
2022-09-26T04:50:09.257Z,99802.31
2022-09-26T04:51:14.238Z,99805.34
2022-09-26T04:52:16.566Z,99800.06
2022-09-26T04:53:21.748Z,99804.75
2022-09-26T04:54:39.358Z,99798.69
2022-09-26T04:55:48.165Z,99797.91
2022-09-26T04:56:50.427Z,99796.97
2022-09-26T04:57:52.899Z,99799.47
2022-09-26T04:58:57.318Z,99796.22
2022-09-26T05:00:02.459Z,99790.91
2022-09-26T05:01:08.452Z,99795.53
2022-09-26T05:02:30.533Z,99798.13
2022-09-26T05:03:33.214Z,99789.78
2022-09-26T05:04:35.987Z,99791.91
2022-09-26T05:05:39.960Z,99799.75
2022-09-26T05:06:42.882Z,99800.59
2022-09-26T05:07:55.929Z,99785.75
2022-09-26T05:08:58.247Z,99794.47
2022-09-26T05:10:20.673Z,99796.13
2022-09-26T05:11:30.218Z,99794.63
2022-09-26T05:12:33.120Z,99794.53
2022-09-26T05:13:37.761Z,99787.94
2022-09-26T05:14:43.781Z,99791.31
2022-09-26T05:15:45.999Z,99787.69
2022-09-26T05:16:48.758Z,99791.53
2022-09-26T05:18:00.090Z,99785.88
2022-09-26T05:19:05.191Z,99782.59
2022-09-26T05:20:17.114Z,99786.72
2022-09-26T05:21:31.819Z,99789.41
2022-09-26T05:22:34.607Z,99780.19
2022-09-26T05:24:00.179Z,99785.63
2022-09-26T05:25:23.434Z,99785.56
2022-09-26T05:26:42.702Z,99784.91
2022-09-26T05:27:45.983Z,99788.97
2022-09-26T05:28:56.414Z,99792.63
2022-09-26T05:30:08.953Z,99797.47
2022-09-26T05:31:11.302Z,99787.00
2022-09-26T05:32:20.760Z,99794.69
2022-09-26T05:33:25.503Z,99794.25
2022-09-26T05:34:28.929Z,99789.97
2022-09-26T05:35:34.757Z,99794.28
2022-09-26T05:36:37.970Z,99790.84
2022-09-26T05:37:40.159Z,99794.38
2022-09-26T05:38:42.448Z,99802.72
2022-09-26T05:40:03.713Z,99801.09
2022-09-26T05:41:07.588Z,99810.00
2022-09-26T05:42:09.824Z,99808.66
2022-09-26T05:43:12.492Z,99808.41
2022-09-26T05:44:15.667Z,99813.84
2022-09-26T05:45:21.204Z,99814.13
2022-09-26T05:46:31.929Z,99816.06
2022-09-26T05:47:43.765Z,99812.63
2022-09-26T05:48:47.188Z,99813.41
2022-09-26T05:49:54.670Z,99808.50
2022-09-26T05:51:11.895Z,99803.66
2022-09-26T05:52:16.610Z,99806.09
2022-09-26T05:53:22.256Z,99812.41
2022-09-26T05:54:25.261Z,99807.09
2022-09-26T05:55:30.297Z,99811.53
2022-09-26T05:56:57.996Z,99812.06
2022-09-26T05:58:23.286Z,99814.38
2022-09-26T05:59:44.049Z,99805.47
2022-09-26T06:01:15.020Z,99805.41
2022-09-26T06:02:20.919Z,99799.94
2022-09-26T06:03:47.292Z,99807.09
2022-09-26T06:05:03.294Z,99797.25
2022-09-26T06:06:24.251Z,99803.19
2022-09-26T06:07:32.619Z,99801.53
2022-09-26T06:08:39.688Z,99799.41
2022-09-26T06:10:00.894Z,99802.09
2022-09-26T06:11:16.020Z,99803.06
2022-09-26T06:12:19.729Z,99797.22
2022-09-26T06:13:22.012Z,99802.88
2022-09-26T06:14:26.377Z,99807.09
2022-09-26T06:15:32.629Z,99809.44
2022-09-26T06:16:35.146Z,99808.38
2022-09-26T06:17:37.466Z,99808.56
2022-09-26T06:18:41.911Z,99815.06
2022-09-26T06:19:44.465Z,99811.53
2022-09-26T06:20:49.418Z,99813.53
2022-09-26T06:21:51.768Z,99813.34
2022-09-26T06:22:56.099Z,99804.25
2022-09-26T06:23:59.711Z,99808.88
2022-09-26T06:25:04.831Z,99813.66
2022-09-26T06:26:11.465Z,99814.41
2022-09-26T06:27:13.869Z,99806.34
2022-09-26T06:28:16.494Z,99804.31
2022-09-26T06:29:18.706Z,99813.34
2022-09-26T06:30:23.671Z,99803.66
2022-09-26T06:31:28.261Z,99812.19
2022-09-26T06:32:46.349Z,99812.66
2022-09-26T06:34:27.425Z,99814.06
2022-09-26T06:35:36.661Z,99819.44
2022-09-26T06:36:46.887Z,99814.88
2022-09-26T06:37:49.175Z,99811.63
2022-09-26T06:38:53.216Z,99813.47
2022-09-26T06:39:59.234Z,99822.09
2022-09-26T06:41:02.011Z,99824.25
2022-09-26T06:42:07.347Z,99817.66
2022-09-26T06:43:31.827Z,99815.84
2022-09-26T06:44:52.831Z,99823.13
2022-09-26T06:46:01.000Z,99809.59
2022-09-26T06:47:22.134Z,99820.03
2022-09-26T06:48:25.964Z,99811.59
2022-09-26T06:49:36.805Z,99807.09
2022-09-26T06:50:44.567Z,99808.75
2022-09-26T06:51:48.978Z,99800.31
2022-09-26T06:52:52.434Z,99805.09
2022-09-26T06:53:54.954Z,99801.09
2022-09-26T06:55:03.621Z,99805.91
2022-09-26T06:56:06.350Z,99799.44
2022-09-26T06:57:11.704Z,99800.59
2022-09-26T06:58:17.352Z,99798.28
2022-09-26T06:59:30.878Z,99797.13
2022-09-26T07:00:59.914Z,99796.75
2022-09-26T07:02:26.437Z,99790.41
2022-09-26T07:03:58.164Z,99787.41
2022-09-26T07:05:13.176Z,99786.84
2022-09-26T07:06:23.046Z,99791.06
2022-09-26T07:07:26.051Z,99786.34
2022-09-26T07:08:50.421Z,99785.00
2022-09-26T07:09:56.201Z,99785.88
2022-09-26T07:12:40.996Z,99782.31
2022-09-26T07:13:44.534Z,99787.75
2022-09-26T07:14:52.892Z,99790.88
2022-09-26T07:16:03.689Z,99788.28
2022-09-26T07:17:29.348Z,99789.25
2022-09-26T07:18:46.577Z,99790.88
2022-09-26T07:20:20.703Z,99791.19
2022-09-26T07:21:43.193Z,99794.03
2022-09-26T07:23:02.487Z,99786.97
2022-09-26T07:24:04.912Z,99798.94
2022-09-26T07:25:07.941Z,99792.50
2022-09-26T07:26:10.184Z,99793.75
2022-09-26T07:27:13.059Z,99800.56
2022-09-26T07:28:15.952Z,99794.59
2022-09-26T07:29:25.289Z,99791.31
2022-09-26T07:30:28.366Z,99786.72
2022-09-26T07:31:39.549Z,99790.53
2022-09-26T07:32:47.819Z,99786.25
2022-09-26T07:34:18.170Z,99780.56
2022-09-26T07:35:21.379Z,99784.97
2022-09-26T07:36:24.446Z,99785.44
2022-09-26T07:37:29.320Z,99781.81
2022-09-26T07:38:32.451Z,99789.47
2022-09-26T07:39:34.829Z,99789.09
2022-09-26T07:40:37.589Z,99784.13
2022-09-26T07:41:40.511Z,99780.56
2022-09-26T07:42:47.772Z,99781.88
2022-09-26T07:45:43.655Z,99784.16
2022-09-26T07:47:04.500Z,99779.25
2022-09-26T07:48:25.315Z,99783.50
2022-09-26T07:50:04.719Z,99789.38
2022-09-26T07:51:32.000Z,99784.19
2022-09-26T07:52:36.212Z,99783.41
2022-09-26T07:53:56.971Z,99786.09
2022-09-26T07:55:09.142Z,99783.88
2022-09-26T07:56:34.647Z,99785.22
2022-09-26T07:57:55.852Z,99785.13
2022-09-26T07:59:22.866Z,99788.66
2022-09-26T08:00:33.965Z,99787.34
2022-09-26T08:02:05.290Z,99789.25
2022-09-26T08:03:14.727Z,99794.44
2022-09-26T08:04:18.719Z,99787.03
2022-09-26T08:05:21.151Z,99783.94
2022-09-26T08:06:25.819Z,99779.00
2022-09-26T08:07:28.402Z,99791.44
2022-09-26T08:08:45.912Z,99785.50
2022-09-26T08:10:07.975Z,99784.09
2022-09-26T08:11:40.342Z,99797.97
2022-09-26T08:13:03.044Z,99789.91
2022-09-26T08:14:16.284Z,99788.59
2022-09-26T08:15:34.186Z,99786.22
2022-09-26T08:16:41.637Z,99782.53
2022-09-26T08:17:44.236Z,99783.34
2022-09-26T08:18:47.272Z,99784.38
2022-09-26T08:19:49.722Z,99782.97
2022-09-26T08:20:52.301Z,99782.13
2022-09-26T08:21:54.489Z,99783.41
2022-09-26T08:22:56.938Z,99788.16
2022-09-26T08:23:59.332Z,99785.34
2022-09-26T08:25:08.339Z,99779.47
2022-09-26T08:26:44.307Z,99777.41
2022-09-26T08:28:12.197Z,99777.56
2022-09-26T08:29:14.898Z,99780.00
2022-09-26T08:30:19.563Z,99771.88
2022-09-26T08:31:22.746Z,99775.78
2022-09-26T08:32:25.169Z,99773.00
2022-09-26T08:33:27.563Z,99777.53
2022-09-26T08:34:32.247Z,99776.75
2022-09-26T08:35:55.036Z,99777.03
2022-09-26T08:37:31.139Z,99775.56
2022-09-26T08:38:52.396Z,99776.63
2022-09-26T08:40:13.971Z,99773.34
2022-09-26T08:41:56.157Z,99765.19
2022-09-26T08:43:45.778Z,99774.94
2022-09-26T08:45:56.467Z,99765.88
2022-09-26T08:47:21.541Z,99775.66
2022-09-26T08:49:25.804Z,99771.28
2022-09-26T08:50:44.862Z,99764.16
2022-09-26T08:51:50.908Z,99758.44
2022-09-26T08:53:02.622Z,99764.06
2022-09-26T08:54:18.660Z,99766.94
2022-09-26T08:55:27.138Z,99760.44
2022-09-26T08:56:35.695Z,99766.03
2022-09-26T08:57:47.793Z,99767.41
2022-09-26T08:58:54.906Z,99765.88
2022-09-26T09:00:24.460Z,99767.53
2022-09-26T09:01:49.879Z,99767.84
2022-09-26T09:03:11.212Z,99757.25
2022-09-26T09:04:17.886Z,99758.84
2022-09-26T09:05:28.475Z,99758.06
2022-09-26T09:06:31.823Z,99759.63
2022-09-26T09:07:34.239Z,99744.75
2022-09-26T09:08:42.939Z,99751.78
2022-09-26T09:10:15.897Z,99760.63
2022-09-26T09:11:42.868Z,99751.06
2022-09-26T09:13:01.102Z,99741.78
2022-09-26T09:15:07.670Z,99740.91
2022-09-26T09:17:06.109Z,99733.63
2022-09-26T09:18:52.506Z,99741.00
2022-09-26T09:20:43.155Z,99731.44
2022-09-26T09:22:22.081Z,99738.38
2022-09-26T09:23:57.105Z,99734.22
2022-09-26T09:25:23.738Z,99735.66
2022-09-26T09:28:48.301Z,99727.56
2022-09-26T09:30:16.451Z,99728.78
2022-09-26T09:31:38.460Z,99725.91
2022-09-26T09:33:03.740Z,99729.16
2022-09-26T09:34:28.969Z,99730.59
2022-09-26T09:36:01.408Z,99727.63
2022-09-26T09:37:19.745Z,99725.09
2022-09-26T09:38:45.835Z,99727.94
2022-09-26T09:39:56.818Z,99734.22
2022-09-26T09:41:14.461Z,99726.31
2022-09-26T09:42:43.114Z,99728.75
2022-09-26T09:43:49.630Z,99729.88
2022-09-26T09:45:13.563Z,99736.13
2022-09-26T09:46:23.735Z,99725.94
2022-09-26T09:47:28.183Z,99733.38
2022-09-26T09:48:31.496Z,99729.00
2022-09-26T09:49:34.449Z,99729.09
2022-09-26T09:50:55.388Z,99733.06
2022-09-26T09:51:57.533Z,99722.28
2022-09-26T09:53:38.272Z,99716.19
2022-09-26T09:54:59.531Z,99727.06
2022-09-26T09:56:32.616Z,99727.13
2022-09-26T09:57:45.780Z,99722.56
2022-09-26T09:59:30.265Z,99717.69
2022-09-26T10:00:42.152Z,99716.66
2022-09-26T10:02:38.103Z,99719.84
2022-09-26T10:03:58.468Z,99724.41
2022-09-26T10:05:18.603Z,99717.41
2022-09-26T10:06:45.916Z,99719.75
2022-09-26T10:07:47.612Z,99714.53
2022-09-26T10:09:40.840Z,99718.69
2022-09-26T10:11:30.515Z,99715.97
2022-09-26T10:12:35.089Z,99714.09
2022-09-26T10:14:01.968Z,99708.59
2022-09-26T10:15:27.435Z,99709.00
2022-09-26T10:17:08.651Z,99699.31
2022-09-26T10:18:25.379Z,99699.50
2022-09-26T10:19:44.137Z,99694.41
2022-09-26T10:20:57.325Z,99700.31
2022-09-26T10:22:00.024Z,99691.91
2022-09-26T10:23:06.251Z,99689.19
2022-09-26T10:24:24.056Z,99689.28
2022-09-26T10:25:32.027Z,99690.50
2022-09-26T10:26:35.925Z,99689.34
2022-09-26T10:27:46.893Z,99676.75
2022-09-26T10:28:58.226Z,99673.84
2022-09-26T10:30:03.520Z,99675.41
2022-09-26T10:31:09.876Z,99675.38
2022-09-26T10:32:30.324Z,99679.88
2022-09-26T10:33:59.568Z,99674.44
2022-09-26T10:35:25.317Z,99681.41
2022-09-26T10:36:38.898Z,99675.94
2022-09-26T10:37:41.757Z,99675.53
2022-09-26T10:39:18.957Z,99677.50
2022-09-26T10:40:48.376Z,99671.34
2022-09-26T10:41:58.454Z,99673.13
2022-09-26T10:43:20.912Z,99668.78
2022-09-26T10:44:28.830Z,99671.84
2022-09-26T10:45:40.920Z,99673.72
2022-09-26T10:47:14.485Z,99662.84
2022-09-26T10:48:47.960Z,99666.41
2022-09-26T10:50:12.183Z,99672.78
2022-09-26T10:51:39.473Z,99673.06
2022-09-26T10:52:50.055Z,99665.06
2022-09-26T10:54:04.963Z,99666.66
2022-09-26T10:55:16.606Z,99658.09
2022-09-26T10:56:26.191Z,99664.81
2022-09-26T10:57:39.903Z,99674.97
2022-09-26T10:58:46.557Z,99662.22
2022-09-26T10:59:51.651Z,99662.03
2022-09-26T11:00:57.456Z,99658.88
2022-09-26T11:02:03.778Z,99654.13
2022-09-26T11:03:11.179Z,99646.63
2022-09-26T11:04:53.905Z,99649.34
2022-09-26T11:06:33.392Z,99646.50
2022-09-26T11:07:57.190Z,99649.25
2022-09-26T11:09:20.422Z,99656.88
2022-09-26T11:10:42.160Z,99659.41
2022-09-26T11:12:27.693Z,99644.53
2022-09-26T11:14:03.449Z,99651.06
2022-09-26T11:15:12.233Z,99650.84
2022-09-26T11:16:16.180Z,99646.03
2022-09-26T11:17:20.883Z,99646.88
2022-09-26T11:18:43.061Z,99650.28
2022-09-26T11:19:58.358Z,99651.13
2022-09-26T11:21:27.481Z,99650.53
2022-09-26T11:22:37.316Z,99650.66
2022-09-26T11:23:50.838Z,99638.72
2022-09-26T11:25:18.435Z,99643.00
2022-09-26T11:26:49.602Z,99646.13
2022-09-26T11:28:07.159Z,99637.06
2022-09-26T11:29:41.889Z,99634.28
2022-09-26T11:30:53.188Z,99633.75
2022-09-26T11:32:00.184Z,99632.78
2022-09-26T11:33:21.673Z,99628.47
2022-09-26T11:34:42.627Z,99624.00
2022-09-26T11:35:55.311Z,99621.06
2022-09-26T11:37:34.612Z,99613.44
2022-09-26T11:38:55.501Z,99622.03
2022-09-26T11:40:22.842Z,99610.38
2022-09-26T11:41:38.135Z,99615.72
2022-09-26T11:42:54.768Z,99605.06
2022-09-26T11:44:23.631Z,99608.38
2022-09-26T11:45:47.468Z,99606.03
2022-09-26T11:47:38.468Z,99611.34
2022-09-26T11:49:02.025Z,99606.22
2022-09-26T11:50:40.219Z,99598.03
2022-09-26T11:52:26.081Z,99595.97
2022-09-26T11:53:52.917Z,99594.28
2022-09-26T11:55:37.193Z,99588.34
2022-09-26T11:56:47.712Z,99588.09
2022-09-26T11:58:03.582Z,99590.84
2022-09-26T11:59:25.046Z,99588.09
2022-09-26T12:00:36.171Z,99579.41
2022-09-26T12:01:58.858Z,99582.97
2022-09-26T12:03:22.518Z,99569.38
2022-09-26T12:04:39.868Z,99572.47
2022-09-26T12:06:01.643Z,99567.34
2022-09-26T12:07:22.362Z,99570.38
2022-09-26T12:08:47.239Z,99568.59
2022-09-26T12:10:28.016Z,99569.69
2022-09-26T12:11:52.915Z,99556.41
2022-09-26T12:13:32.689Z,99561.19
2022-09-26T12:14:48.752Z,99561.03
2022-09-26T12:16:09.377Z,99557.03
2022-09-26T12:17:36.386Z,99561.53
2022-09-26T12:18:46.058Z,99554.97
2022-09-26T12:20:17.411Z,99557.00
2022-09-26T12:21:34.459Z,99549.69
2022-09-26T12:22:50.856Z,99554.63
2022-09-26T12:23:57.302Z,99558.78
2022-09-26T12:25:05.026Z,99557.00
2022-09-26T12:26:23.663Z,99557.16
2022-09-26T12:27:43.435Z,99558.16
2022-09-26T12:28:54.604Z,99555.47
2022-09-26T12:30:12.450Z,99556.16
2022-09-26T12:31:21.123Z,99555.72
2022-09-26T12:32:41.569Z,99547.69
2022-09-26T12:34:10.867Z,99556.88
2022-09-26T12:35:41.861Z,99544.28
2022-09-26T12:36:51.217Z,99543.50
2022-09-26T12:38:32.959Z,99548.88
2022-09-26T12:40:00.703Z,99546.09
2022-09-26T12:41:25.225Z,99545.91
2022-09-26T12:42:57.069Z,99527.81
2022-09-26T12:44:13.249Z,99543.03
2022-09-26T12:45:42.254Z,99538.19
2022-09-26T12:47:03.298Z,99541.59
2022-09-26T12:48:40.024Z,99531.50
2022-09-26T12:49:47.855Z,99531.00
2022-09-26T12:51:32.739Z,99533.84
2022-09-26T12:52:54.921Z,99525.00
2022-09-26T12:54:18.550Z,99529.56
2022-09-26T12:55:27.385Z,99529.53
2022-09-26T12:56:35.178Z,99529.25
2022-09-26T12:57:50.349Z,99522.81
2022-09-26T12:59:16.269Z,99523.25
2022-09-26T13:00:22.123Z,99525.94
2022-09-26T13:01:39.420Z,99525.38
2022-09-26T13:03:08.045Z,99522.66
2022-09-26T13:04:35.716Z,99518.66
2022-09-26T13:06:13.523Z,99511.50
2022-09-26T13:07:50.320Z,99510.66
2022-09-26T13:08:58.537Z,99511.50
2022-09-26T13:10:28.149Z,99508.44
2022-09-26T13:12:05.535Z,99500.97
2022-09-26T13:13:37.916Z,99505.69
2022-09-26T13:14:50.233Z,99495.53
2022-09-26T13:16:16.474Z,99502.47
2022-09-26T13:17:34.003Z,99490.47
2022-09-26T13:18:45.620Z,99501.59
2022-09-26T13:20:06.291Z,99494.72
2022-09-26T13:21:19.173Z,99499.63
2022-09-26T13:22:50.607Z,99497.94
2022-09-26T13:24:13.886Z,99496.94
2022-09-26T13:25:21.800Z,99496.66
2022-09-26T13:26:29.213Z,99498.22
2022-09-26T13:27:39.000Z,99493.66
2022-09-26T13:29:17.139Z,99498.34
2022-09-26T13:30:25.274Z,99497.22
2022-09-26T13:31:38.107Z,99492.34
2022-09-26T13:32:53.835Z,99491.63
2022-09-26T13:34:01.268Z,99488.47
2022-09-26T13:35:28.405Z,99489.28
2022-09-26T13:36:32.427Z,99490.31
2022-09-26T13:37:56.648Z,99497.94
2022-09-26T13:39:48.238Z,99497.50
2022-09-26T13:41:22.111Z,99489.66
2022-09-26T13:42:47.374Z,99487.06
2022-09-26T13:44:30.248Z,99485.09
2022-09-26T13:46:00.629Z,99482.78
2022-09-26T13:47:13.099Z,99479.94
2022-09-26T13:48:27.578Z,99467.66
2022-09-26T13:49:33.858Z,99469.94
2022-09-26T13:50:38.901Z,99466.94
2022-09-26T13:51:54.558Z,99465.94
2022-09-26T13:53:10.065Z,99470.22
2022-09-26T13:54:16.941Z,99470.94
2022-09-26T13:55:22.057Z,99468.22
2022-09-26T13:56:36.135Z,99470.38
2022-09-26T13:58:06.727Z,99461.53
2022-09-26T13:59:11.988Z,99465.97
2022-09-26T14:00:26.642Z,99463.81
2022-09-26T14:01:28.965Z,99465.97
2022-09-26T14:02:31.992Z,99467.50
2022-09-26T14:03:39.026Z,99462.53
2022-09-26T14:04:42.257Z,99460.78
2022-09-26T14:05:44.551Z,99452.81
2022-09-26T14:07:24.995Z,99454.38
2022-09-26T14:08:45.925Z,99451.81
2022-09-26T14:10:02.683Z,99447.41
2022-09-26T14:11:32.731Z,99449.97
2022-09-26T14:12:55.781Z,99446.13
2022-09-26T14:14:19.395Z,99440.25
2022-09-26T14:15:25.356Z,99440.69
2022-09-26T14:16:27.701Z,99437.72
2022-09-26T14:17:41.615Z,99436.56
2022-09-26T14:19:09.210Z,99441.84
2022-09-26T14:20:27.389Z,99422.56
2022-09-26T14:21:57.953Z,99436.25
2022-09-26T14:23:01.416Z,99424.81
2022-09-26T14:24:26.982Z,99435.78
2022-09-26T14:25:50.576Z,99431.06
2022-09-26T14:27:10.903Z,99426.91
2022-09-26T14:28:39.951Z,99423.69
2022-09-26T14:29:44.845Z,99428.53
2022-09-26T14:31:17.430Z,99426.28
2022-09-26T14:32:27.486Z,99416.75
2022-09-26T14:33:29.780Z,99427.84